Time;durP1;ratioP1;P1;durP2;ratioP2;P2;SDS_P1;SDS_P2;PMS_P1;PMS_P2;Temp;Humidity;BMP_temperature;BMP_pressure;BME280_temperature;BME280_humidity;BME280_pressure;Samples;Min_cycle;Max_cycle;Signal;HPM_P1;HPM_P2
2021/05/20 00:00:26;;;;;;;3.20;1.40;;;;;;;11.56;83.90;96946.09;1578051;90;21138;-64
2021/05/20 00:02:55;;;;;;;2.08;1.12;;;;;;;11.50;83.85;96949.40;1578095;89;21107;-62
2021/05/20 00:05:22;;;;;;;4.25;1.45;;;;;;;11.53;83.58;96947.26;1578014;91;21122;-66
2021/05/20 00:07:50;;;;;;;2.80;2.02;;;;;;;11.52;83.54;96948.72;1577948;91;21153;-65
2021/05/20 00:10:17;;;;;;;1.65;1.12;;;;;;;11.54;83.52;96947.59;1578055;91;21658;-63
2021/05/20 00:12:45;;;;;;;1.15;1.05;;;;;;;11.58;82.75;96946.26;1578000;90;21083;-62
2021/05/20 00:15:15;;;;;;;1.20;0.90;;;;;;;11.61;82.43;96947.20;1577977;91;21110;-62
2021/05/20 00:17:43;;;;;;;1.37;0.90;;;;;;;11.65;82.41;96953.67;1577925;91;21561;-63
2021/05/20 00:20:11;;;;;;;1.87;1.00;;;;;;;11.68;82.34;96951.21;1577972;91;21135;-63
2021/05/20 00:22:38;;;;;;;1.12;0.90;;;;;;;11.63;83.13;96953.05;1578002;90;21098;-63
2021/05/20 00:25:08;;;;;;;1.35;0.90;;;;;;;11.69;82.35;96958.04;1578177;91;21226;-62
2021/05/20 00:27:35;;;;;;;1.40;1.05;;;;;;;11.69;82.30;96951.05;1578012;91;21095;-63
2021/05/20 00:30:07;;;;;;;1.25;0.85;;;;;;;11.73;81.97;96952.35;1578142;91;21083;-63
2021/05/20 00:32:34;;;;;;;1.67;1.07;;;;;;;11.78;81.84;96955.25;1578141;91;21138;-63
2021/05/20 00:35:01;;;;;;;1.02;0.80;;;;;;;11.82;82.01;96951.80;1578097;91;21124;-63
2021/05/20 00:37:28;;;;;;;1.10;0.90;;;;;;;11.86;82.32;96953.89;1578307;90;21083;-62
2021/05/20 00:39:55;;;;;;;5.83;0.93;;;;;;;11.86;82.19;96955.19;1578084;91;21063;-62
2021/05/20 00:42:22;;;;;;;1.25;0.88;;;;;;;11.86;82.10;96956.97;1578118;91;21083;-62
2021/05/20 00:45:01;;;;;;;1.10;0.65;;;;;;;11.87;81.55;96955.97;1578066;91;21103;-62
2021/05/20 00:47:31;;;;;;;1.22;0.70;;;;;;;11.89;81.39;96965.23;1577641;90;21174;-63
2021/05/20 00:50:00;;;;;;;1.50;0.78;;;;;;;11.89;81.20;96960.52;1578626;89;21118;-63
2021/05/20 00:52:27;;;;;;;1.05;0.70;;;;;;;11.90;81.31;96962.93;1584817;88;21252;-62
2021/05/20 00:54:59;;;;;;;0.78;0.70;;;;;;;11.90;80.85;96961.63;1607128;88;21154;-64
2021/05/20 00:57:27;;;;;;;1.07;0.80;;;;;;;11.91;80.69;96959.84;1584620;88;21081;-62
2021/05/20 00:59:54;;;;;;;3.33;0.90;;;;;;;11.87;81.55;96959.38;1584783;89;21217;-66
2021/05/20 01:02:21;;;;;;;1.10;0.80;;;;;;;11.86;81.17;96962.17;1584950;90;21110;-64
2021/05/20 01:04:48;;;;;;;1.87;1.10;;;;;;;11.77;82.35;96958.83;1593339;88;21133;-64
2021/05/20 01:07:15;;;;;;;1.07;0.75;;;;;;;11.72;82.19;96961.61;1589439;89;21046;-68
2021/05/20 01:09:42;;;;;;;1.82;0.93;;;;;;;11.70;82.14;96964.38;1589255;89;21069;-64
2021/05/20 01:12:12;;;;;;;1.17;1.00;;;;;;;11.69;81.97;96955.44;1589013;89;21110;-67
2021/05/20 01:14:43;;;;;;;2.98;0.90;;;;;;;11.66;81.98;96955.30;1589229;89;21097;-64
2021/05/20 01:17:13;;;;;;;1.12;0.72;;;;;;;11.65;81.99;96954.16;1584822;89;21082;-65
2021/05/20 01:19:44;;;;;;;1.95;0.82;;;;;;;11.63;81.90;96943.95;1573512;90;21110;-62
2021/05/20 01:22:12;;;;;;;1.12;0.80;;;;;;;11.63;81.84;96942.66;1573531;90;21106;-63
2021/05/20 01:24:40;;;;;;;2.08;1.20;;;;;;;11.61;82.30;96948.99;1573479;91;21676;-64
2021/05/20 01:27:10;;;;;;;1.60;1.07;;;;;;;11.57;83.20;96949.02;1573489;90;21599;-63
2021/05/20 01:29:40;;;;;;;1.27;0.90;;;;;;;11.46;84.38;96941.62;1573422;90;21081;-65
2021/05/20 01:32:08;;;;;;;1.65;0.98;;;;;;;11.40;84.41;96938.72;1573356;90;21153;-65
2021/05/20 01:34:36;;;;;;;1.15;1.02;;;;;;;11.35;85.04;96939.75;1573482;90;21073;-63
2021/05/20 01:37:06;;;;;;;1.42;0.70;;;;;;;11.32;84.91;96934.09;1573510;90;21105;-64
2021/05/20 01:39:34;;;;;;;3.52;1.00;;;;;;;11.28;85.14;96932.30;1573596;90;21614;-63
2021/05/20 01:42:01;;;;;;;2.02;1.00;;;;;;;11.27;84.83;96930.70;1571974;90;21661;-64
2021/05/20 01:44:28;;;;;;;0.80;0.72;;;;;;;11.27;84.36;96932.49;1573597;90;21653;-65
2021/05/20 01:46:54;;;;;;;1.20;1.00;;;;;;;11.29;84.24;96927.91;1573567;90;21102;-65
2021/05/20 01:49:21;;;;;;;1.07;0.98;;;;;;;11.28;84.63;96925.02;1573405;90;21578;-66
2021/05/20 01:51:48;;;;;;;1.30;1.02;;;;;;;11.24;86.26;96926.34;1573491;90;21121;-66
2021/05/20 01:54:15;;;;;;;2.85;1.20;;;;;;;11.21;85.78;96926.66;1573671;90;21221;-65
2021/05/20 01:56:42;;;;;;;1.85;0.98;;;;;;;11.17;85.86;96921.48;1573556;90;21161;-65
2021/05/20 01:59:10;;;;;;;1.27;0.90;;;;;;;11.14;86.03;96924.44;1573627;90;21566;-64
2021/05/20 02:01:37;;;;;;;1.02;0.90;;;;;;;11.13;86.35;96920.21;1573502;90;21098;-64
2021/05/20 02:04:05;;;;;;;2.72;0.95;;;;;;;11.13;86.74;96922.33;1573699;90;21114;-64
2021/05/20 02:06:32;;;;;;;2.45;1.20;;;;;;;11.11;86.36;96912.61;1573511;90;21074;-64
2021/05/20 02:09:01;;;;;;;1.77;1.20;;;;;;;11.10;87.00;96917.48;1573519;90;21102;-64
2021/05/20 02:11:28;;;;;;;1.25;1.02;;;;;;;11.10;87.74;96914.06;1573612;90;21090;-64
2021/05/20 02:13:55;;;;;;;2.65;1.17;;;;;;;11.08;88.47;96909.55;1573590;90;21098;-63
2021/05/20 02:16:22;;;;;;;1.20;1.07;;;;;;;11.07;88.27;96916.52;1573597;90;21130;-66
2021/05/20 02:18:49;;;;;;;3.33;1.27;;;;;;;11.08;88.12;96908.24;1573575;90;21594;-65
2021/05/20 02:21:16;;;;;;;1.80;1.15;;;;;;;11.12;87.94;96910.82;1573490;90;21737;-65
2021/05/20 02:23:42;;;;;;;1.82;1.22;;;;;;;11.13;87.88;96905.44;1573674;90;21142;-66
2021/05/20 02:26:09;;;;;;;2.37;1.50;;;;;;;11.17;87.73;96902.81;1573532;90;21113;-65
2021/05/20 02:28:36;;;;;;;2.17;1.45;;;;;;;11.20;87.70;96899.08;1573522;90;21070;-65
2021/05/20 02:31:03;;;;;;;3.90;1.95;;;;;;;11.22;88.09;96897.11;1573504;90;21106;-65
2021/05/20 02:33:30;;;;;;;2.25;1.40;;;;;;;11.27;87.85;96897.41;1573536;90;21136;-65
2021/05/20 02:35:57;;;;;;;2.17;1.60;;;;;;;11.28;87.56;96896.43;1573497;90;21252;-65
2021/05/20 02:38:24;;;;;;;3.22;1.32;;;;;;;11.32;87.50;96890.69;1573702;90;21189;-65
2021/05/20 02:40:51;;;;;;;1.95;1.50;;;;;;;11.34;87.72;96890.53;1573567;90;21170;-65
2021/05/20 02:43:17;;;;;;;1.62;1.12;;;;;;;11.37;87.47;96888.39;1573481;90;21150;-66
2021/05/20 02:45:44;;;;;;;1.35;1.12;;;;;;;11.46;87.12;96893.53;1573731;90;21090;-64
2021/05/20 02:48:11;;;;;;;1.87;1.60;;;;;;;11.54;86.69;96890.87;1573510;91;21095;-64
2021/05/20 02:50:38;;;;;;;2.70;1.00;;;;;;;11.58;86.45;96891.66;1572680;90;21055;-64
2021/05/20 02:53:05;;;;;;;1.50;1.30;;;;;;;11.61;86.23;96895.69;1563739;90;21113;-64
2021/05/20 02:55:32;;;;;;;3.62;1.35;;;;;;;11.66;85.80;96894.19;1563732;92;21206;-64
2021/05/20 02:58:01;;;;;;;3.37;1.30;;;;;;;11.67;85.77;96888.50;1563670;92;21310;-64
2021/05/20 03:00:33;;;;;;;2.27;1.22;;;;;;;11.64;86.06;96890.94;1563690;92;21080;-64
2021/05/20 03:03:00;;;;;;;2.30;1.37;;;;;;;11.69;85.65;96895.62;1575617;90;21133;-64
2021/05/20 03:05:30;;;;;;;1.45;1.15;;;;;;;11.72;85.55;96896.59;1601975;88;21119;-64
2021/05/20 03:07:58;;;;;;;1.20;0.90;;;;;;;11.75;85.42;96894.45;1601896;89;21087;-65
2021/05/20 03:10:25;;;;;;;1.67;1.22;;;;;;;11.72;85.19;96896.59;1601990;89;21800;-64
2021/05/20 03:12:52;;;;;;;1.55;1.20;;;;;;;11.70;85.36;96900.66;1601963;89;21122;-64
2021/05/20 03:15:19;;;;;;;1.42;1.07;;;;;;;11.71;85.17;96904.89;1602000;89;21098;-64
2021/05/20 03:17:46;;;;;;;1.60;1.15;;;;;;;11.68;85.45;96901.31;1601941;89;21186;-64
2021/05/20 03:20:16;;;;;;;1.92;1.27;;;;;;;11.69;85.50;96899.52;1601980;89;21059;-64
2021/05/20 03:22:46;;;;;;;1.27;0.78;;;;;;;11.64;85.75;96903.13;1598389;89;21593;-64
2021/05/20 03:25:15;;;;;;;1.60;1.00;;;;;;;11.63;86.07;96902.84;1606013;89;21657;-64
2021/05/20 03:27:41;;;;;;;0.93;0.80;;;;;;;11.64;85.55;96903.13;1606237;89;21139;-64
2021/05/20 03:30:30;;;;;;;1.85;1.32;;;;;;;11.68;84.73;96907.00;1606187;89;21301;-64
2021/05/20 03:32:57;;;;;;;1.40;1.07;;;;;;;11.71;84.45;96910.58;1604878;88;21162;-64
2021/05/20 03:35:24;;;;;;;2.17;1.30;;;;;;;11.72;84.59;96907.81;1604808;88;21182;-64
2021/05/20 03:37:51;;;;;;;1.85;1.20;;;;;;;11.71;84.51;96913.98;1604840;88;21706;-64
2021/05/20 03:40:17;;;;;;;1.65;1.10;;;;;;;11.68;84.73;96914.80;1604730;88;21174;-64
2021/05/20 03:42:44;;;;;;;12.25;7.40;;;;;;;11.72;84.43;96911.72;1604997;88;21510;-64
2021/05/20 03:45:13;;;;;;;9.38;4.80;;;;;;;11.74;84.52;96914.97;1604786;88;21181;-64
2021/05/20 03:47:40;;;;;;;10.40;5.83;;;;;;;11.73;85.11;96921.63;1604676;88;21125;-65
2021/05/20 03:50:08;;;;;;;3.45;2.25;;;;;;;11.73;84.80;96927.64;1604787;88;21594;-66
2021/05/20 03:52:35;;;;;;;10.20;4.00;;;;;;;11.67;84.76;96932.71;1604779;88;21103;-66
2021/05/20 03:55:02;;;;;;;2.02;1.30;;;;;;;11.61;85.37;96931.60;1604828;88;21120;-65
2021/05/20 03:57:29;;;;;;;2.10;1.45;;;;;;;11.59;85.63;96927.08;1604779;88;21130;-64
2021/05/20 03:59:56;;;;;;;1.17;1.05;;;;;;;11.62;85.45;96929.33;1604771;88;21126;-65
2021/05/20 04:02:23;;;;;;;1.07;0.90;;;;;;;11.64;85.33;96931.73;1604909;88;21135;-65
2021/05/20 04:04:50;;;;;;;1.37;0.80;;;;;;;11.66;85.18;96935.80;1603951;88;21109;-65
2021/05/20 04:07:17;;;;;;;1.12;1.02;;;;;;;11.68;84.88;96936.42;1604836;88;21617;-64
2021/05/20 04:09:44;;;;;;;1.25;0.90;;;;;;;11.62;84.93;96936.31;1604816;88;21090;-64
2021/05/20 04:12:12;;;;;;;1.12;0.85;;;;;;;11.62;84.73;96934.53;1604766;88;21685;-65
2021/05/20 04:14:39;;;;;;;1.45;1.10;;;;;;;11.62;84.88;96935.02;1604875;88;21194;-65
2021/05/20 04:17:07;;;;;;;1.82;1.20;;;;;;;11.61;85.37;96938.59;1602397;88;21154;-65
2021/05/20 04:19:34;;;;;;;1.65;0.85;;;;;;;11.61;85.59;96935.98;1603471;89;21106;-64
2021/05/20 04:22:00;;;;;;;2.72;1.17;;;;;;;11.63;85.15;96941.84;1603500;89;21098;-64
2021/05/20 04:24:27;;;;;;;2.10;1.20;;;;;;;11.60;85.38;96946.88;1603123;89;21118;-66
2021/05/20 04:26:54;;;;;;;0.98;0.80;;;;;;;11.57;86.60;96943.82;1603195;89;21252;-64
2021/05/20 04:29:21;;;;;;;1.35;1.10;;;;;;;11.62;85.96;96947.53;1602860;89;21126;-64
2021/05/20 04:31:48;;;;;;;1.20;0.85;;;;;;;11.61;85.09;96947.20;1620539;86;21604;-65
2021/05/20 04:34:15;;;;;;;1.12;0.98;;;;;;;11.68;85.36;96941.62;1641894;87;21052;-67
2021/05/20 04:36:42;;;;;;;1.10;1.00;;;;;;;11.79;85.13;96946.92;1641784;86;21077;-64
2021/05/20 04:39:09;;;;;;;2.70;0.93;;;;;;;11.82;84.77;96947.91;1641864;86;21127;-65
2021/05/20 04:41:35;;;;;;;1.02;0.88;;;;;;;11.88;84.74;96941.98;1641487;86;21128;-65
2021/05/20 04:44:24;;;;;;;1.77;1.00;;;;;;;11.93;84.54;96943.58;1619352;88;21127;-65
2021/05/20 04:46:51;;;;;;;1.10;0.98;;;;;;;11.97;84.32;96941.43;1683580;85;21096;-63
2021/05/20 04:49:18;;;;;;;1.37;0.90;;;;;;;12.03;84.35;96944.62;1668972;86;21097;-65
2021/05/20 04:51:45;;;;;;;2.52;0.93;;;;;;;12.07;84.14;96943.28;1669008;86;21250;-63
2021/05/20 04:54:12;;;;;;;1.10;1.00;;;;;;;12.13;83.93;96942.10;1669665;86;21567;-65
2021/05/20 04:56:40;;;;;;;1.55;1.10;;;;;;;12.19;83.71;96944.47;1669752;86;21099;-62
2021/05/20 04:59:07;;;;;;;3.08;1.22;;;;;;;12.19;83.77;96940.57;1670247;86;21106;-63
2021/05/20 05:01:34;;;;;;;2.35;1.60;;;;;;;12.15;83.75;96938.81;1670180;86;21563;-65
2021/05/20 05:04:01;;;;;;;2.92;1.15;;;;;;;12.18;83.57;96936.34;1670232;86;21086;-67
2021/05/20 05:06:28;;;;;;;1.65;1.00;;;;;;;12.22;83.49;96931.91;1670231;86;21216;-68
2021/05/20 05:08:55;;;;;;;2.20;1.32;;;;;;;12.26;83.35;96938.38;1670242;86;21085;-66
2021/05/20 05:11:22;;;;;;;4.03;1.25;;;;;;;12.31;83.05;96939.16;1670234;86;21531;-67
2021/05/20 05:13:49;;;;;;;2.10;1.27;;;;;;;12.35;82.88;96943.83;1670335;86;21077;-65
2021/05/20 05:16:16;;;;;;;4.03;1.32;;;;;;;12.39;82.86;96936.47;1670407;86;21204;-67
2021/05/20 05:18:43;;;;;;;1.65;1.12;;;;;;;12.37;83.08;96939.23;1670356;86;21586;-68
2021/05/20 05:21:09;;;;;;;3.08;1.57;;;;;;;12.31;83.12;96933.95;1670480;86;21110;-65
2021/05/20 05:23:36;;;;;;;2.25;1.70;;;;;;;12.24;83.80;96921.33;1670267;86;21111;-63
2021/05/20 05:26:03;;;;;;;2.83;1.50;;;;;;;12.34;84.48;96926.58;1670268;86;21111;-64
2021/05/20 05:28:30;;;;;;;3.12;1.80;;;;;;;12.29;84.39;96935.41;1670253;86;21190;-66
2021/05/20 05:30:57;;;;;;;1.45;1.35;;;;;;;12.23;84.85;96937.44;1670360;86;21102;-67
2021/05/20 05:33:24;;;;;;;1.92;1.40;;;;;;;12.27;84.01;96937.89;1670233;86;21653;-65
2021/05/20 05:35:51;;;;;;;2.55;1.42;;;;;;;12.27;84.02;96935.28;1670439;86;21090;-65
2021/05/20 05:38:18;;;;;;;2.33;1.05;;;;;;;12.26;84.71;96930.56;1670353;86;21050;-64
2021/05/20 05:40:45;;;;;;;2.33;1.42;;;;;;;12.30;83.81;96933.13;1670441;86;21106;-64
2021/05/20 05:43:11;;;;;;;2.55;1.52;;;;;;;12.32;83.05;96934.27;1670424;86;21042;-64
2021/05/20 05:45:38;;;;;;;1.35;1.25;;;;;;;12.30;83.96;96940.12;1672069;84;21128;-64
2021/05/20 05:48:10;;;;;;;2.98;1.37;;;;;;;12.24;84.44;96936.95;1674036;86;21087;-64
2021/05/20 05:50:34;;;;;;;1.62;1.17;;;;;;;12.21;84.35;96937.31;1673797;85;21118;-65
2021/05/20 05:53:03;;;;;;;1.57;1.30;;;;;;;12.19;84.47;96936.66;1674726;85;21563;-64
2021/05/20 05:55:30;;;;;;;2.50;1.40;;;;;;;12.15;84.32;96938.81;1674580;86;21044;-64
2021/05/20 05:57:56;;;;;;;1.95;1.17;;;;;;;12.16;84.12;96939.63;1673950;86;21123;-65
2021/05/20 06:00:24;;;;;;;1.30;1.12;;;;;;;12.20;83.99;96940.41;1673958;86;21547;-63
2021/05/20 06:02:52;;;;;;;4.25;1.95;;;;;;;12.20;84.37;96939.59;1659096;86;21189;-63
2021/05/20 06:05:19;;;;;;;2.20;1.40;;;;;;;12.24;83.88;96942.97;1650845;87;21194;-63
2021/05/20 06:07:47;;;;;;;3.60;1.42;;;;;;;12.24;84.20;96941.67;1637926;87;21248;-63
2021/05/20 06:10:14;;;;;;;2.45;1.50;;;;;;;12.23;84.63;96941.34;1652340;87;21111;-62
2021/05/20 06:12:40;;;;;;;2.50;1.67;;;;;;;12.23;84.94;96937.44;1637761;85;21075;-63
2021/05/20 06:15:09;;;;;;;3.05;1.82;;;;;;;12.27;84.88;96940.00;1652102;86;21095;-62
2021/05/20 06:17:37;;;;;;;3.65;1.60;;;;;;;12.30;85.23;96938.83;1638150;85;21158;-63
2021/05/20 06:20:10;;;;;;;5.20;1.62;;;;;;;12.32;84.44;96945.98;1652511;86;21289;-65
2021/05/20 06:22:39;;;;;;;3.40;2.20;;;;;;;12.32;85.04;96944.69;1638213;87;21027;-65
2021/05/20 06:27:55;;;;;;;2.20;1.40;;;;;;;12.36;84.29;96941.55;1615769;84;21123;-62
2021/05/20 06:30:22;;;;;;;1.75;1.50;;;;;;;12.48;83.69;96937.20;1611823;88;21126;-64
2021/05/20 06:32:49;;;;;;;2.02;1.27;;;;;;;12.53;83.45;96940.86;1657794;85;21588;-64
2021/05/20 06:35:16;;;;;;;2.33;1.27;;;;;;;12.55;83.50;96942.81;1657953;85;21102;-64
2021/05/20 06:37:43;;;;;;;1.77;1.20;;;;;;;12.58;82.88;96938.54;1662695;84;21169;-64
2021/05/20 06:40:11;;;;;;;1.40;1.10;;;;;;;12.64;82.89;96941.74;1688637;84;21179;-64
2021/05/20 06:42:39;;;;;;;1.62;1.17;;;;;;;12.67;82.76;96945.77;1688765;84;21166;-63
2021/05/20 06:45:07;;;;;;;1.52;1.10;;;;;;;12.68;82.55;96937.76;1688676;84;21068;-64
2021/05/20 06:47:34;;;;;;;1.77;1.12;;;;;;;12.66;82.73;96943.66;1688981;84;21643;-62
2021/05/20 06:50:01;;;;;;;2.17;1.00;;;;;;;12.70;82.63;96944.10;1689162;84;21107;-64
2021/05/20 06:52:28;;;;;;;2.85;1.72;;;;;;;12.78;82.37;96947.92;1688731;84;21198;-63
2021/05/20 06:54:55;;;;;;;3.08;1.77;;;;;;;12.71;83.05;96954.36;1688854;84;21243;-64
2021/05/20 06:59:55;;;;;;;1.55;1.17;;;;;;;12.56;83.61;96950.13;1707269;84;21593;-63
2021/05/20 06:59:58;;;;;;;2.15;1.25;;;;;;;12.62;83.08;96950.22;1708352;84;21081;-64
2021/05/20 07:02:31;;;;;;;1.50;1.30;;;;;;;12.70;82.93;96950.13;1698735;84;21561;-64
2021/05/20 07:04:58;;;;;;;1.50;1.10;;;;;;;12.61;83.28;96955.59;1677942;84;21097;-64
2021/05/20 07:07:25;;;;;;;2.40;1.40;;;;;;;12.61;84.10;96959.01;1677976;84;21145;-64
2021/05/20 07:09:53;;;;;;;1.30;0.98;;;;;;;12.71;83.66;96954.84;1678098;84;21181;-64
2021/05/20 07:12:20;;;;;;;3.15;2.30;;;;;;;12.65;83.36;96959.45;1677856;84;21605;-64
2021/05/20 07:14:47;;;;;;;2.05;1.37;;;;;;;12.60;84.13;96959.20;1677827;84;21094;-64
2021/05/20 07:17:14;;;;;;;1.55;1.22;;;;;;;12.51;84.27;96962.38;1677886;84;21574;-64
2021/05/20 07:19:40;;;;;;;1.72;1.60;;;;;;;12.52;83.56;96967.91;1677987;84;21174;-64
2021/05/20 07:22:07;;;;;;;3.25;1.60;;;;;;;12.49;83.33;96964.86;1678526;84;21085;-63
2021/05/20 07:24:34;;;;;;;1.50;1.12;;;;;;;12.47;84.44;96975.45;1678437;84;21145;-63
2021/05/20 07:27:01;;;;;;;1.62;1.27;;;;;;;12.45;84.52;96972.72;1678499;84;21113;-65
2021/05/20 07:29:28;;;;;;;1.75;1.27;;;;;;;12.43;83.69;96976.78;1678441;84;21086;-64
2021/05/20 07:31:55;;;;;;;1.30;1.00;;;;;;;12.45;83.37;96975.31;1677885;84;21125;-64
2021/05/20 07:34:22;;;;;;;1.20;1.02;;;;;;;12.49;83.17;96979.19;1677792;84;21152;-64
2021/05/20 07:36:49;;;;;;;1.65;1.10;;;;;;;12.49;83.00;96976.58;1677962;84;21165;-65
2021/05/20 07:39:15;;;;;;;1.45;1.07;;;;;;;12.44;82.24;96981.02;1677769;84;21121;-65
2021/05/20 07:41:44;;;;;;;1.67;1.37;;;;;;;12.40;82.17;96982.36;1678024;84;21152;-66
2021/05/20 07:44:11;;;;;;;2.33;1.32;;;;;;;12.42;82.49;96980.86;1659126;84;21077;-65
2021/05/20 07:46:38;;;;;;;4.87;2.75;;;;;;;12.38;82.75;96986.42;1677942;84;21093;-64
2021/05/20 07:49:05;;;;;;;2.05;1.45;;;;;;;12.31;82.69;96983.41;1677889;84;21090;-64
2021/05/20 07:51:32;;;;;;;2.52;1.55;;;;;;;12.17;83.19;96978.99;1677885;84;21597;-64
2021/05/20 07:53:59;;;;;;;2.62;1.40;;;;;;;12.30;83.03;96982.59;1677832;84;21538;-64
2021/05/20 07:56:26;;;;;;;1.80;1.15;;;;;;;12.29;82.88;96984.88;1677408;84;21570;-64
2021/05/20 07:58:53;;;;;;;1.32;1.22;;;;;;;12.31;83.21;96983.41;1677998;84;21112;-64
2021/05/20 08:01:22;;;;;;;1.92;1.50;;;;;;;12.31;82.77;96981.62;1677670;84;21082;-64
2021/05/20 08:03:56;;;;;;;3.22;2.42;;;;;;;12.33;83.35;96985.36;1677928;84;21097;-64
2021/05/20 08:06:22;;;;;;;6.37;4.58;;;;;;;12.35;83.52;96984.67;1675085;84;21065;-65
2021/05/20 08:08:57;;;;;;;3.22;2.00;;;;;;;12.37;83.42;96983.50;1677499;84;21574;-65
2021/05/20 08:11:19;;;;;;;4.60;2.30;;;;;;;12.34;83.80;96986.46;1676741;84;21085;-65
2021/05/20 08:13:45;;;;;;;2.08;1.60;;;;;;;12.34;83.98;96985.65;1677863;84;21112;-65
2021/05/20 08:16:13;;;;;;;4.53;3.08;;;;;;;12.40;83.48;96992.77;1677823;84;21582;-65
2021/05/20 08:18:41;;;;;;;5.45;3.40;;;;;;;12.38;83.74;96993.42;1677755;84;21099;-64
2021/05/20 08:21:10;;;;;;;1.82;1.40;;;;;;;12.45;84.01;96996.93;1677784;84;21062;-65
2021/05/20 08:23:37;;;;;;;1.52;1.07;;;;;;;12.44;83.79;96995.83;1677693;84;21689;-64
2021/05/20 08:26:07;;;;;;;2.40;1.70;;;;;;;12.48;83.86;96994.48;1677917;84;21054;-63
2021/05/20 08:28:34;;;;;;;2.00;1.60;;;;;;;12.42;83.83;96997.78;1677890;84;21121;-65
2021/05/20 08:31:01;;;;;;;1.75;1.32;;;;;;;12.40;84.01;96998.47;1677707;84;21090;-64
2021/05/20 08:33:28;;;;;;;2.95;1.35;;;;;;;12.33;84.10;96999.67;1677883;84;21086;-65
2021/05/20 08:35:55;;;;;;;2.05;1.52;;;;;;;12.40;83.93;97004.97;1677697;84;21641;-65
2021/05/20 08:38:22;;;;;;;2.58;1.95;;;;;;;12.33;84.47;97009.56;1677733;84;21121;-65
2021/05/20 08:40:49;;;;;;;3.85;1.95;;;;;;;12.40;84.96;97006.27;1677876;84;21089;-65
2021/05/20 08:43:16;;;;;;;6.00;2.17;;;;;;;12.22;84.31;97007.39;1677877;84;21102;-65
2021/05/20 08:45:43;;;;;;;2.52;1.80;;;;;;;12.33;84.47;97010.88;1678078;84;21129;-65
2021/05/20 08:48:10;;;;;;;2.15;1.62;;;;;;;12.31;84.58;97010.25;1673852;84;21094;-66
2021/05/20 08:50:37;;;;;;;3.85;1.82;;;;;;;12.41;83.98;97010.02;1677775;84;21109;-67
2021/05/20 08:53:04;;;;;;;1.65;1.35;;;;;;;12.30;84.90;97013.02;1677839;84;21108;-65
2021/05/20 08:55:36;;;;;;;2.40;1.87;;;;;;;12.37;84.33;97014.73;1677122;84;21172;-65
2021/05/20 08:58:08;;;;;;;7.08;2.37;;;;;;;12.36;84.38;97021.45;1677764;84;21101;-64
2021/05/20 09:00:35;;;;;;;3.12;2.00;;;;;;;12.28;85.24;97015.81;1677890;84;21133;-65
2021/05/20 09:03:12;;;;;;;2.72;1.70;;;;;;;12.28;85.04;97021.52;1677879;84;21105;-64
2021/05/20 09:05:41;;;;;;;3.00;1.50;;;;;;;12.26;84.87;97024.77;1677858;84;22153;-65
2021/05/20 09:08:13;;;;;;;3.25;1.45;;;;;;;12.23;84.24;97020.73;1677956;84;21581;-64
2021/05/20 09:10:43;;;;;;;3.12;1.27;;;;;;;12.18;84.59;97024.34;1678015;84;21117;-64
2021/05/20 09:13:19;;;;;;;2.60;1.62;;;;;;;12.22;83.73;97025.61;1677952;84;21549;-64
2021/05/20 09:15:52;;;;;;;3.58;2.08;;;;;;;12.24;84.17;97035.37;1678093;84;21592;-64
2021/05/20 09:18:27;;;;;;;3.15;1.70;;;;;;;12.11;85.06;97031.73;1677928;84;21081;-64
2021/05/20 09:20:58;;;;;;;1.85;1.10;;;;;;;12.17;85.18;97037.06;1678174;84;21093;-65
2021/05/20 09:23:30;;;;;;;4.25;1.47;;;;;;;12.20;84.71;97043.70;1677810;84;21391;-64
2021/05/20 09:26:09;;;;;;;2.27;1.57;;;;;;;12.14;85.42;97047.02;1677909;84;21545;-64
2021/05/20 09:28:41;;;;;;;2.65;1.60;;;;;;;12.12;86.47;97045.06;1673337;84;21097;-64
2021/05/20 09:31:11;;;;;;;2.58;1.90;;;;;;;12.18;85.18;97046.47;1673504;84;21584;-65
2021/05/20 09:33:37;;;;;;;1.77;1.55;;;;;;;12.14;85.50;97051.70;1673235;84;21554;-64
2021/05/20 09:36:05;;;;;;;4.45;2.80;;;;;;;11.94;87.26;97047.97;1673716;84;21038;-64
2021/05/20 09:38:36;;;;;;;5.05;1.77;;;;;;;12.11;86.37;97053.84;1673627;84;21231;-64
2021/05/20 09:41:04;;;;;;;3.22;1.70;;;;;;;12.10;86.10;97048.34;1673452;84;21613;-64
2021/05/20 09:43:39;;;;;;;2.30;1.37;;;;;;;12.11;85.74;97052.06;1673480;84;21125;-64
2021/05/20 09:46:18;;;;;;;2.15;1.60;;;;;;;12.20;85.39;97059.31;1673389;84;21568;-65
2021/05/20 09:49:07;;;;;;;3.22;1.65;;;;;;;12.16;86.33;97056.26;1673433;84;21061;-64
2021/05/20 09:51:34;;;;;;;2.87;1.87;;;;;;;12.10;85.80;97062.14;1655069;86;21111;-65
2021/05/20 09:54:02;;;;;;;4.83;1.60;;;;;;;12.14;85.69;97067.84;1655321;86;21112;-65
2021/05/20 09:56:40;;;;;;;2.20;1.37;;;;;;;12.15;85.45;97062.92;1655707;86;21186;-65
2021/05/20 09:59:12;;;;;;;2.70;1.85;;;;;;;12.04;84.99;97065.45;1655428;86;21138;-65
2021/05/20 10:01:39;;;;;;;1.35;1.12;;;;;;;12.02;84.24;97059.63;1653693;86;21112;-65
2021/05/20 10:04:12;;;;;;;3.45;2.27;;;;;;;12.06;85.17;97060.09;1655039;86;21095;-65
2021/05/20 10:06:42;;;;;;;2.77;1.75;;;;;;;12.03;86.01;97061.22;1662579;86;21115;-65
2021/05/20 10:09:12;;;;;;;2.40;1.80;;;;;;;11.96;85.56;97060.79;1662438;85;21082;-65
2021/05/20 10:11:42;;;;;;;2.65;1.60;;;;;;;12.02;87.07;97065.31;1662429;86;21102;-64
2021/05/20 10:14:09;;;;;;;1.67;1.10;;;;;;;12.02;84.58;97068.73;1662353;85;21104;-64
2021/05/20 10:16:40;;;;;;;2.47;1.45;;;;;;;11.94;85.48;97064.88;1662479;85;21287;-65
2021/05/20 10:19:08;;;;;;;6.10;1.77;;;;;;;11.99;85.81;97071.66;1662474;86;21335;-64
2021/05/20 10:21:35;;;;;;;4.67;1.57;;;;;;;11.94;86.60;97073.17;1662449;86;21543;-64
2021/05/20 10:24:06;;;;;;;1.20;1.10;;;;;;;12.05;85.02;97070.17;1662357;85;21158;-65
2021/05/20 10:26:40;;;;;;;2.42;1.75;;;;;;;11.86;85.92;97073.55;1662348;86;21164;-64
2021/05/20 10:29:08;;;;;;;3.08;2.40;;;;;;;11.95;85.53;97074.28;1662346;86;21075;-64
2021/05/20 10:31:35;;;;;;;2.60;1.65;;;;;;;11.92;86.34;97075.94;1662256;86;21196;-64
2021/05/20 10:34:27;;;;;;;2.72;1.30;;;;;;;11.94;85.48;97082.28;1662403;86;21174;-64
2021/05/20 10:37:03;;;;;;;2.40;1.57;;;;;;;11.93;84.32;97077.56;1673756;86;21465;-65
2021/05/20 10:39:29;;;;;;;2.50;1.00;;;;;;;11.90;84.03;97082.60;1673723;86;21174;-65
2021/05/20 10:41:56;;;;;;;2.15;1.02;;;;;;;11.93;83.39;97083.25;1673866;86;21658;-65
2021/05/20 10:44:25;;;;;;;1.42;1.17;;;;;;;11.96;83.16;97085.51;1673687;86;21075;-65
2021/05/20 10:47:03;;;;;;;3.15;1.20;;;;;;;11.80;82.88;97082.02;1673765;85;21087;-64
2021/05/20 10:49:53;;;;;;;0.78;0.70;;;;;;;11.90;83.02;97088.32;1673724;86;21059;-64
2021/05/20 10:52:39;;;;;;;1.70;1.12;;;;;;;11.92;82.40;97092.84;1673791;85;21063;-65
2021/05/20 10:55:12;;;;;;;2.55;1.02;;;;;;;11.92;82.29;97099.84;1673785;86;21084;-64
2021/05/20 10:58:01;;;;;;;1.80;1.37;;;;;;;11.93;82.25;97097.56;1673778;84;21194;-65
2021/05/20 11:00:38;;;;;;;1.42;1.07;;;;;;;11.94;81.95;97110.41;1673749;84;21015;-65
2021/05/20 11:03:07;;;;;;;2.05;0.90;;;;;;;11.97;82.52;97102.26;1673715;86;21068;-65
2021/05/20 11:05:46;;;;;;;2.37;1.30;;;;;;;12.10;81.76;97111.59;1673692;86;21027;-64
2021/05/20 11:08:40;;;;;;;2.50;1.70;;;;;;;12.19;81.68;97114.47;1673671;84;21059;-64
2021/05/20 11:11:27;;;;;;;2.70;1.57;;;;;;;12.25;82.44;97109.08;1673552;86;21084;-64
2021/05/20 11:13:54;;;;;;;1.65;1.15;;;;;;;12.34;81.91;97117.12;1673531;85;21086;-63
2021/05/20 11:16:31;;;;;;;4.08;1.57;;;;;;;12.36;81.73;97120.37;1673451;84;21112;-63
2021/05/20 11:19:23;;;;;;;3.22;2.25;;;;;;;12.27;81.23;97114.91;1673693;86;21067;-63
2021/05/20 11:22:02;;;;;;;5.10;2.83;;;;;;;12.33;81.23;97116.31;1673545;86;21099;-64
2021/05/20 11:24:34;;;;;;;2.72;1.47;;;;;;;12.53;80.96;97116.64;1673426;85;21099;-63
2021/05/20 11:27:11;;;;;;;2.08;1.42;;;;;;;12.62;80.90;97116.91;1673556;86;21138;-63
2021/05/20 11:29:41;;;;;;;2.95;1.75;;;;;;;12.63;80.13;97115.12;1642545;86;21899;-64
2021/05/20 11:37:38;;;;;;;3.40;2.02;;;;;;;12.69;80.77;97117.00;1664151;85;21108;-65
2021/05/20 11:40:29;;;;;;;1.67;1.37;;;;;;;12.68;80.91;97120.61;1663880;86;21055;-63
2021/05/20 11:42:56;;;;;;;1.90;1.42;;;;;;;12.68;80.69;97128.44;1664074;85;21660;-64
2021/05/20 11:45:32;;;;;;;6.00;1.85;;;;;;;12.64;81.07;97121.95;1664075;86;21287;-63
2021/05/20 11:48:01;;;;;;;2.20;1.67;;;;;;;12.73;81.04;97128.69;1664382;84;21071;-64
2021/05/20 11:50:29;;;;;;;3.30;1.95;;;;;;;12.78;80.83;97131.09;1670933;82;21051;-64